Time;durP1;ratioP1;P1;durP2;ratioP2;P2;SDS_P1;SDS_P2;PMS_P1;PMS_P2;Temp;Humidity;BMP_temperature;BMP_pressure;BME280_temperature;BME280_humidity;BME280_pressure;Samples;Min_cycle;Max_cycle;Signal;HPM_P1;HPM_P2
2022/11/12 00:00:50;;;;;;;7.37;4.73;;;7.60;99.90;;;;;;5020881;28;21352;-63
2022/11/12 00:03:17;;;;;;;6.43;4.80;;;7.50;99.90;;;;;;4982187;28;20206;-63
2022/11/12 00:05:44;;;;;;;8.43;4.90;;;7.50;99.90;;;;;;5005039;28;20201;-63
2022/11/12 00:08:11;;;;;;;7.13;4.87;;;7.40;99.90;;;;;;5008843;28;20206;-63
2022/11/12 00:10:38;;;;;;;5.47;4.63;;;7.40;99.90;;;;;;5014233;28;20201;-63
2022/11/12 00:13:07;;;;;;;8.37;4.37;;;7.40;99.90;;;;;;5005394;28;20201;-63
2022/11/12 00:15:34;;;;;;;7.47;4.57;;;7.30;99.90;;;;;;5023632;28;20204;-63
2022/11/12 00:18:00;;;;;;;6.73;4.80;;;7.30;99.90;;;;;;5007985;28;20237;-63
2022/11/12 00:20:27;;;;;;;7.63;4.37;;;7.40;99.90;;;;;;4987551;28;20915;-63
2022/11/12 00:22:54;;;;;;;7.30;4.50;;;7.30;99.90;;;;;;5006148;28;20201;-63
2022/11/12 00:25:21;;;;;;;7.70;4.70;;;7.20;99.90;;;;;;5000917;28;20202;-63
2022/11/12 00:27:47;;;;;;;6.67;4.53;;;7.30;99.90;;;;;;4987665;28;20210;-63
2022/11/12 00:30:16;;;;;;;5.47;4.23;;;7.30;99.90;;;;;;5026937;28;20197;-63
2022/11/12 00:32:43;;;;;;;5.40;4.17;;;7.20;99.90;;;;;;5002856;28;20206;-63
2022/11/12 00:35:11;;;;;;;6.33;5.00;;;7.20;99.90;;;;;;4995368;28;20214;-64
2022/11/12 00:37:38;;;;;;;9.67;4.57;;;7.30;99.90;;;;;;5025723;28;20337;-63
2022/11/12 00:40:06;;;;;;;5.13;4.63;;;7.40;99.90;;;;;;5001046;28;20205;-64
2022/11/12 00:42:32;;;;;;;9.30;4.73;;;7.50;99.90;;;;;;5013716;28;20194;-63
2022/11/12 00:44:59;;;;;;;6.03;4.37;;;7.50;99.90;;;;;;5008582;28;20205;-63
2022/11/12 00:47:27;;;;;;;6.40;4.03;;;7.40;99.90;;;;;;5026946;28;20209;-63
2022/11/12 00:49:54;;;;;;;6.07;4.23;;;7.40;99.90;;;;;;4994710;28;20201;-63
2022/11/12 00:52:21;;;;;;;4.63;3.87;;;7.30;99.90;;;;;;5005190;28;20815;-63
2022/11/12 00:54:49;;;;;;;5.67;4.10;;;7.30;99.90;;;;;;5015092;28;20202;-63
2022/11/12 00:57:16;;;;;;;4.57;3.83;;;7.20;99.90;;;;;;4985328;28;20210;-63
2022/11/12 00:59:43;;;;;;;5.73;4.13;;;7.10;99.90;;;;;;5008718;28;20223;-63
2022/11/12 01:02:09;;;;;;;10.20;4.60;;;7.20;99.90;;;;;;5005643;28;20888;-63
2022/11/12 01:04:38;;;;;;;9.50;4.13;;;7.20;99.90;;;;;;5007908;28;20410;-63
2022/11/12 01:07:04;;;;;;;6.00;4.50;;;7.10;99.90;;;;;;4999236;28;20238;-63
2022/11/12 01:09:31;;;;;;;6.33;4.60;;;7.10;99.90;;;;;;5009772;28;20226;-63
2022/11/12 01:11:58;;;;;;;6.87;4.00;;;7.10;99.90;;;;;;5010530;28;20209;-63
2022/11/12 01:14:25;;;;;;;6.80;4.77;;;7.00;99.90;;;;;;4991307;28;20209;-63
2022/11/12 01:16:51;;;;;;;7.50;4.60;;;7.10;99.90;;;;;;5020401;28;20656;-62
2022/11/12 01:19:18;;;;;;;5.00;4.23;;;6.90;99.90;;;;;;5006537;28;20233;-63
2022/11/12 01:21:47;;;;;;;5.83;4.93;;;6.90;99.90;;;;;;4977954;28;21876;-63
2022/11/12 01:24:13;;;;;;;6.33;4.07;;;7.00;99.90;;;;;;5005190;28;20201;-63
2022/11/12 01:26:40;;;;;;;5.87;5.17;;;7.00;99.90;;;;;;4976599;28;20205;-63
2022/11/12 01:29:08;;;;;;;8.47;4.87;;;7.00;99.90;;;;;;4997760;28;20213;-63
2022/11/12 01:31:36;;;;;;;7.77;5.10;;;7.10;99.90;;;;;;4996506;28;20671;-62
2022/11/12 01:34:05;;;;;;;6.63;4.60;;;7.10;99.90;;;;;;5015878;28;20212;-63
2022/11/12 01:36:34;;;;;;;6.03;4.43;;;7.10;99.90;;;;;;4995435;28;20207;-62
2022/11/12 01:39:04;;;;;;;6.60;5.03;;;7.10;99.90;;;;;;4998050;28;20225;-63
2022/11/12 01:41:33;;;;;;;6.90;4.70;;;6.90;99.90;;;;;;5008832;28;20570;-63
2022/11/12 01:44:11;;;;;;;5.43;4.60;;;6.80;99.90;;;;;;4999122;28;20213;-63
2022/11/12 01:46:46;;;;;;;7.17;5.27;;;6.90;99.90;;;;;;5009336;28;20577;-63
2022/11/12 01:49:18;;;;;;;8.33;5.17;;;6.70;99.90;;;;;;5016210;28;20197;-63
2022/11/12 01:51:49;;;;;;;6.47;4.67;;;6.80;99.90;;;;;;5001837;28;20992;-63
2022/11/12 01:54:20;;;;;;;7.63;4.70;;;6.80;99.90;;;;;;4991771;28;20213;-63
2022/11/12 01:56:49;;;;;;;6.20;4.73;;;6.80;99.90;;;;;;4992154;28;20691;-63
2022/11/12 01:59:20;;;;;;;6.60;5.00;;;6.80;99.90;;;;;;5011922;28;20236;-63
2022/11/12 02:01:46;;;;;;;5.97;4.23;;;6.80;99.90;;;;;;4999435;28;20216;-62
2022/11/12 02:04:14;;;;;;;7.33;5.17;;;6.70;99.90;;;;;;5024956;28;20228;-64
2022/11/12 02:06:42;;;;;;;7.57;4.80;;;6.80;99.90;;;;;;5009492;28;20572;-63
2022/11/12 02:09:10;;;;;;;7.37;4.47;;;6.60;99.90;;;;;;4983731;28;20231;-63
2022/11/12 02:11:38;;;;;;;4.23;3.80;;;6.60;99.90;;;;;;4995841;28;21531;-63
2022/11/12 02:14:04;;;;;;;11.07;4.67;;;6.80;99.90;;;;;;5008143;28;20236;-63
2022/11/12 02:16:34;;;;;;;7.60;4.97;;;6.80;99.90;;;;;;5004424;28;20807;-63
2022/11/12 02:19:01;;;;;;;7.27;4.83;;;6.90;99.90;;;;;;5022466;28;20243;-63
2022/11/12 02:21:30;;;;;;;8.93;5.00;;;6.90;99.90;;;;;;5009961;28;20198;-63
2022/11/12 02:24:02;;;;;;;10.47;4.70;;;6.90;99.90;;;;;;5009217;28;20216;-63
2022/11/12 02:26:32;;;;;;;6.40;4.70;;;6.90;99.90;;;;;;4977301;28;20217;-63
2022/11/12 02:28:59;;;;;;;7.37;4.73;;;7.00;99.90;;;;;;5009862;28;20948;-63
2022/11/12 02:31:26;;;;;;;7.43;4.60;;;7.00;99.90;;;;;;5014471;28;20206;-63
2022/11/12 02:33:53;;;;;;;7.07;4.97;;;6.90;99.90;;;;;;5007700;28;20229;-63
2022/11/12 02:36:20;;;;;;;7.23;4.93;;;6.80;99.90;;;;;;5025541;28;20690;-63
2022/11/12 02:38:48;;;;;;;10.27;5.43;;;6.70;99.90;;;;;;5002125;28;21481;-63
2022/11/12 02:41:16;;;;;;;6.80;4.40;;;6.40;99.90;;;;;;4994585;28;20209;-63
2022/11/12 02:43:44;;;;;;;6.90;4.73;;;6.60;99.90;;;;;;5012379;28;20206;-64
2022/11/12 02:46:11;;;;;;;10.07;4.37;;;6.50;99.90;;;;;;5010333;28;21098;-63
2022/11/12 02:48:38;;;;;;;5.13;4.30;;;6.40;99.90;;;;;;5013958;28;20209;-63
2022/11/12 02:51:05;;;;;;;9.23;4.83;;;6.50;99.90;;;;;;5021097;28;21385;-63
2022/11/12 02:53:32;;;;;;;9.80;5.23;;;6.60;99.90;;;;;;5017152;28;20203;-63
2022/11/12 02:56:01;;;;;;;7.33;5.00;;;6.50;99.90;;;;;;4979169;28;21972;-63
2022/11/12 02:58:28;;;;;;;6.93;4.97;;;6.60;99.90;;;;;;5012126;28;20230;-64
2022/11/12 03:00:56;;;;;;;6.67;5.27;;;6.70;99.90;;;;;;5006892;28;20208;-63
2022/11/12 03:03:23;;;;;;;7.53;5.10;;;6.70;99.90;;;;;;5013719;28;20211;-62
2022/11/12 03:05:56;;;;;;;6.17;5.13;;;6.60;99.90;;;;;;5016407;28;20256;-62
2022/11/12 03:08:23;;;;;;;7.90;5.33;;;6.50;99.90;;;;;;5005846;28;20233;-63
2022/11/12 03:10:51;;;;;;;6.03;5.17;;;6.50;99.90;;;;;;4974663;28;20585;-64
2022/11/12 03:13:20;;;;;;;10.17;5.97;;;6.30;99.90;;;;;;4987437;28;20681;-62
2022/11/12 03:15:47;;;;;;;9.27;5.00;;;6.50;99.90;;;;;;4992482;28;20206;-63
2022/11/12 03:18:14;;;;;;;7.13;5.27;;;6.50;99.90;;;;;;4985729;28;23024;-63
2022/11/12 03:20:41;;;;;;;7.10;4.83;;;6.50;99.90;;;;;;5003646;28;20214;-63
2022/11/12 03:23:10;;;;;;;6.63;4.73;;;6.50;99.90;;;;;;4993880;28;20206;-63
2022/11/12 03:25:37;;;;;;;8.70;5.33;;;6.50;99.90;;;;;;4985000;28;20301;-63
2022/11/12 03:28:07;;;;;;;12.07;5.70;;;6.50;99.90;;;;;;4979679;28;20218;-63
2022/11/12 03:30:37;;;;;;;8.80;5.27;;;6.40;99.90;;;;;;4981380;28;20199;-63
2022/11/12 03:33:05;;;;;;;5.60;4.70;;;6.60;99.90;;;;;;4995358;28;20205;-63
2022/11/12 03:35:32;;;;;;;10.13;5.00;;;6.40;99.90;;;;;;4994041;28;20746;-62
2022/11/12 03:37:59;;;;;;;7.80;5.67;;;6.40;99.90;;;;;;5005943;28;20199;-63
2022/11/12 03:40:27;;;;;;;6.87;4.80;;;6.50;99.90;;;;;;4980764;28;20203;-63
2022/11/12 03:42:54;;;;;;;7.57;5.10;;;6.50;99.90;;;;;;4978928;28;20214;-63
2022/11/12 03:45:23;;;;;;;7.10;5.07;;;6.50;99.90;;;;;;4978040;28;20217;-63
2022/11/12 03:47:53;;;;;;;11.20;5.43;;;6.60;99.90;;;;;;5010570;28;20218;-63
2022/11/12 03:50:21;;;;;;;11.43;4.90;;;6.50;99.90;;;;;;4990037;28;20237;-63
2022/11/12 03:52:50;;;;;;;7.67;5.27;;;6.50;99.90;;;;;;5006758;28;20206;-63
2022/11/12 03:55:19;;;;;;;6.27;4.97;;;6.30;99.90;;;;;;4973558;28;20226;-63
2022/11/12 03:57:48;;;;;;;9.70;5.73;;;6.30;99.90;;;;;;4971338;28;20218;-62
2022/11/12 04:00:16;;;;;;;8.07;5.40;;;6.40;99.90;;;;;;4984148;28;20233;-64
2022/11/12 04:02:42;;;;;;;8.23;4.83;;;6.40;99.90;;;;;;5007521;28;20210;-63
2022/11/12 04:10:44;;;;;;;7.63;5.07;;;6.40;99.90;;;;;;5004812;28;20208;-62
2022/11/12 04:13:29;;;;;;;7.07;5.07;;;6.40;99.90;;;;;;4983358;28;20579;-63
2022/11/12 04:21:51;;;;;;;5.90;5.20;;;6.40;99.90;;;;;;4995150;28;20733;-63
2022/11/12 04:27:04;;;;;;;11.77;5.13;;;6.30;99.90;;;;;;4980737;28;20218;-63
2022/11/12 04:32:15;;;;;;;7.30;4.53;;;6.40;99.90;;;;;;4972056;28;20254;-63
2022/11/12 04:34:42;;;;;;;6.03;4.07;;;6.10;99.90;;;;;;5004141;28;20236;-63
2022/11/12 04:37:10;;;;;;;11.33;4.33;;;6.00;99.90;;;;;;4987665;28;20202;-63
2022/11/12 04:39:37;;;;;;;5.90;4.20;;;6.10;99.90;;;;;;4992553;28;20228;-63
2022/11/12 04:45:00;;;;;;;5.03;3.90;;;6.00;99.90;;;;;;4999001;28;20244;-63
2022/11/12 04:47:27;;;;;;;4.83;3.30;;;5.70;99.90;;;;;;4984998;28;20201;-62
2022/11/12 04:49:54;;;;;;;5.53;3.83;;;5.70;99.90;;;;;;5002206;28;20766;-62
2022/11/12 04:52:22;;;;;;;5.47;3.60;;;5.70;99.90;;;;;;5005273;28;20209;-62
2022/11/12 04:54:49;;;;;;;5.23;3.33;;;5.70;99.90;;;;;;5006687;28;20205;-63
2022/11/12 04:57:16;;;;;;;4.60;3.73;;;5.70;99.90;;;;;;4994299;28;20209;-63
2022/11/12 04:59:43;;;;;;;4.37;3.43;;;5.60;99.90;;;;;;4995186;28;20232;-63
2022/11/12 05:02:10;;;;;;;11.00;4.10;;;5.60;99.90;;;;;;4979576;28;20206;-62
2022/11/12 05:04:36;;;;;;;4.97;3.70;;;5.70;99.90;;;;;;4993417;28;20220;-63
2022/11/12 05:07:03;;;;;;;4.57;4.03;;;5.70;99.90;;;;;;4997175;28;20202;-62
2022/11/12 05:09:32;;;;;;;7.10;4.43;;;5.70;99.90;;;;;;5005889;28;20224;-63
2022/11/12 05:11:58;;;;;;;5.53;4.37;;;5.70;99.90;;;;;;4996196;28;20213;-63
2022/11/12 05:14:25;;;;;;;5.93;5.07;;;5.80;99.90;;;;;;4993233;28;20217;-63
2022/11/12 05:16:52;;;;;;;9.43;4.83;;;6.00;99.90;;;;;;4994329;28;20934;-63
2022/11/12 05:19:19;;;;;;;7.67;5.40;;;6.00;99.90;;;;;;4981905;28;20235;-62
2022/11/12 05:24:32;;;;;;;8.47;5.37;;;5.90;99.90;;;;;;5002496;28;20200;-62
2022/11/12 05:26:59;;;;;;;7.63;6.00;;;6.00;99.90;;;;;;4983623;28;20206;-62
2022/11/12 05:29:25;;;;;;;8.43;5.63;;;6.10;99.90;;;;;;4989085;28;20198;-62
2022/11/12 05:31:52;;;;;;;9.67;5.47;;;6.00;99.90;;;;;;5007038;28;20543;-63
2022/11/12 05:34:19;;;;;;;8.57;5.70;;;5.90;99.90;;;;;;4947944;28;20241;-63
2022/11/12 05:36:46;;;;;;;12.93;5.63;;;5.90;99.90;;;;;;5001500;28;20610;-63
2022/11/12 05:39:13;;;;;;;7.67;5.97;;;5.90;99.90;;;;;;4973963;28;20224;-63
2022/11/12 05:41:41;;;;;;;9.00;5.23;;;5.90;99.90;;;;;;4985051;28;20206;-63
2022/11/12 05:44:08;;;;;;;9.77;5.47;;;5.90;99.90;;;;;;5003906;28;20574;-63
2022/11/12 05:46:34;;;;;;;9.77;5.70;;;5.80;99.90;;;;;;4994679;28;20221;-62
2022/11/12 05:49:01;;;;;;;6.90;5.40;;;5.70;99.90;;;;;;4979486;28;20791;-63
2022/11/12 05:51:28;;;;;;;18.17;6.20;;;5.80;99.90;;;;;;4989915;28;21381;-62
2022/11/12 05:53:55;;;;;;;7.00;5.70;;;5.80;99.90;;;;;;4994234;28;20225;-62
2022/11/12 05:56:22;;;;;;;7.37;4.80;;;5.80;99.90;;;;;;4994595;28;20202;-63
2022/11/12 05:58:50;;;;;;;9.03;6.33;;;5.90;99.90;;;;;;4986097;28;20274;-62
2022/11/12 06:01:17;;;;;;;7.37;5.40;;;6.00;99.90;;;;;;4981863;28;20690;-63
2022/11/12 06:03:43;;;;;;;8.20;5.97;;;5.90;99.90;;;;;;4970418;28;20215;-63
2022/11/12 06:06:10;;;;;;;8.43;5.27;;;5.80;99.90;;;;;;4988757;28;20206;-62
2022/11/12 06:08:37;;;;;;;7.77;5.67;;;5.80;99.90;;;;;;5002118;28;20245;-62
2022/11/12 06:11:04;;;;;;;8.77;5.27;;;5.80;99.90;;;;;;5011774;28;20216;-62
2022/11/12 06:13:31;;;;;;;10.10;5.43;;;5.70;99.90;;;;;;5013724;28;20209;-62
2022/11/12 06:15:59;;;;;;;8.87;5.20;;;5.50;99.90;;;;;;5024126;28;20225;-63
2022/11/12 06:18:26;;;;;;;7.90;4.83;;;5.40;99.90;;;;;;5005619;28;21018;-63
2022/11/12 06:23:37;;;;;;;12.97;5.87;;;5.20;99.90;;;;;;5022004;28;20688;-63
2022/11/12 06:26:04;;;;;;;7.20;4.73;;;5.10;99.90;;;;;;5014607;28;20209;-62
2022/11/12 06:28:31;;;;;;;8.57;5.30;;;4.90;99.90;;;;;;5011145;28;20236;-63
2022/11/12 06:30:59;;;;;;;7.40;5.13;;;5.20;99.90;;;;;;5026513;28;20211;-63
2022/11/12 06:33:26;;;;;;;8.43;5.70;;;5.20;99.90;;;;;;4996570;28;20211;-63
2022/11/12 06:36:01;;;;;;;6.80;5.07;;;5.20;99.90;;;;;;5004328;28;20205;-62
2022/11/12 06:38:29;;;;;;;6.47;5.07;;;5.30;99.90;;;;;;5022326;28;21002;-63
2022/11/12 06:40:56;;;;;;;7.17;4.97;;;5.40;99.90;;;;;;5022045;28;20365;-62
2022/11/12 06:43:23;;;;;;;8.80;5.10;;;5.30;99.90;;;;;;5008831;28;20209;-62
2022/11/12 06:45:50;;;;;;;9.87;5.63;;;5.20;99.90;;;;;;5018508;28;20216;-63
2022/11/12 06:48:18;;;;;;;5.93;4.67;;;5.30;99.90;;;;;;5011939;28;20202;-63
2022/11/12 06:50:45;;;;;;;7.37;5.10;;;5.20;99.90;;;;;;5024458;28;22146;-63
2022/11/12 06:53:12;;;;;;;7.33;4.77;;;5.30;99.90;;;;;;5002791;28;20210;-62
2022/11/12 06:55:38;;;;;;;6.17;4.00;;;5.30;99.90;;;;;;5026995;28;20207;-62
2022/11/12 06:58:05;;;;;;;6.83;5.30;;;5.30;99.90;;;;;;5011301;28;20207;-63
2022/11/12 07:00:32;;;;;;;5.07;4.40;;;5.30;99.90;;;;;;5007434;28;20781;-63
2022/11/12 07:02:59;;;;;;;8.37;5.37;;;5.20;99.90;;;;;;5015052;28;20199;-62
2022/11/12 07:05:27;;;;;;;6.83;5.20;;;5.30;99.90;;;;;;5013093;28;20197;-63
2022/11/12 07:07:54;;;;;;;9.07;5.93;;;5.30;99.90;;;;;;5000196;28;20215;-63
2022/11/12 07:10:21;;;;;;;8.10;5.63;;;5.40;99.90;;;;;;5023403;28;20197;-62
2022/11/12 07:12:48;;;;;;;7.47;4.97;;;5.40;99.90;;;;;;5009791;28;20957;-62
2022/11/12 07:15:15;;;;;;;5.87;4.47;;;5.40;99.90;;;;;;5014420;28;20226;-63
2022/11/12 07:17:45;;;;;;;7.00;5.07;;;5.40;99.90;;;;;;5014765;28;20213;-62
2022/11/12 07:20:12;;;;;;;5.87;4.73;;;5.40;99.90;;;;;;5021548;28;20246;-63
2022/11/12 07:22:41;;;;;;;7.30;5.37;;;5.40;99.90;;;;;;4973213;28;20206;-63
2022/11/12 07:25:08;;;;;;;11.13;5.30;;;5.20;99.90;;;;;;5017872;28;20749;-63
2022/11/12 07:27:35;;;;;;;48.27;23.50;;;5.40;99.90;;;;;;5009003;28;20205;-62
2022/11/12 07:30:02;;;;;;;37.60;17.03;;;5.40;99.90;;;;;;5018854;28;20197;-63
2022/11/12 07:32:29;;;;;;;12.30;8.73;;;5.40;99.90;;;;;;5003313;28;20674;-62
2022/11/12 07:34:56;;;;;;;10.63;7.37;;;5.40;99.90;;;;;;5020395;28;20201;-62
2022/11/12 07:37:23;;;;;;;8.73;6.50;;;5.40;99.90;;;;;;5015224;28;20213;-63
2022/11/12 07:39:51;;;;;;;8.20;6.00;;;5.40;99.90;;;;;;4997125;28;20228;-63
2022/11/12 07:42:18;;;;;;;6.57;4.43;;;5.20;99.90;;;;;;5008073;28;20235;-63
2022/11/12 07:44:45;;;;;;;6.57;4.43;;;5.10;99.90;;;;;;5017314;28;20232;-62
2022/11/12 07:47:11;;;;;;;5.93;4.83;;;5.00;99.90;;;;;;5001005;28;20233;-62
2022/11/12 07:49:38;;;;;;;6.50;4.90;;;5.20;99.90;;;;;;5002439;28;20275;-63
2022/11/12 07:52:05;;;;;;;8.37;6.17;;;5.20;99.90;;;;;;5003388;28;20839;-63
2022/11/12 07:54:32;;;;;;;8.83;6.20;;;5.20;99.90;;;;;;4991653;28;21415;-63
2022/11/12 07:57:00;;;;;;;9.77;6.13;;;5.40;99.90;;;;;;5016798;28;20693;-63
2022/11/12 07:59:27;;;;;;;8.23;6.23;;;5.50;99.90;;;;;;5010306;28;20917;-63
2022/11/12 08:01:53;;;;;;;8.50;6.53;;;5.70;99.90;;;;;;5010751;28;20594;-63
2022/11/12 08:04:20;;;;;;;7.83;6.63;;;5.70;99.90;;;;;;5007675;28;20656;-62
2022/11/12 08:06:48;;;;;;;9.33;6.77;;;5.80;99.90;;;;;;5010708;28;20423;-63
2022/11/12 08:09:14;;;;;;;10.30;6.60;;;5.90;99.90;;;;;;4979545;28;20236;-63
2022/11/12 08:11:41;;;;;;;10.63;6.33;;;5.90;99.90;;;;;;5020122;28;21060;-63
2022/11/12 08:14:10;;;;;;;10.17;6.33;;;5.90;99.90;;;;;;4987626;28;20205;-63
2022/11/12 08:16:36;;;;;;;9.90;7.60;;;5.90;99.90;;;;;;5018448;28;20817;-64
2022/11/12 08:19:03;;;;;;;12.80;6.40;;;6.00;99.90;;;;;;5004872;28;20595;-62
2022/11/12 08:21:30;;;;;;;10.20;6.13;;;6.10;99.90;;;;;;5009788;28;20233;-62
2022/11/12 08:23:57;;;;;;;9.77;6.70;;;6.10;99.90;;;;;;5025084;28;20201;-62
2022/11/12 08:26:25;;;;;;;11.73;7.60;;;6.20;99.90;;;;;;4982823;28;20662;-63
2022/11/12 08:28:52;;;;;;;10.87;7.20;;;6.30;99.90;;;;;;4997251;28;20231;-62
2022/11/12 08:31:21;;;;;;;10.93;7.00;;;6.30;99.90;;;;;;4994237;28;20229;-66
2022/11/12 08:33:49;;;;;;;10.47;6.60;;;6.20;99.90;;;;;;4985323;28;20199;-62
2022/11/12 08:36:17;;;;;;;9.30;6.23;;;6.30;99.90;;;;;;5020322;28;20226;-62
2022/11/12 08:38:44;;;;;;;9.20;6.80;;;;;;;;;;4991811;28;20227;-63
2022/11/12 08:41:13;;;;;;;9.87;7.20;;;6.50;99.90;;;;;;4991733;28;20237;-63
2022/11/12 08:43:41;;;;;;;11.87;6.07;;;6.40;99.90;;;;;;4995613;28;23652;-62
2022/11/12 08:46:08;;;;;;;8.83;6.20;;;6.40;99.90;;;;;;5013962;28;20224;-63
2022/11/12 08:48:38;;;;;;;8.67;6.70;;;6.50;99.90;;;;;;4995196;28;20663;-63
2022/11/12 08:51:06;;;;;;;9.03;6.17;;;6.50;99.90;;;;;;5004716;28;20251;-62
2022/11/12 08:53:33;;;;;;;9.17;6.93;;;6.70;99.90;;;;;;4995432;28;20226;-63
2022/11/12 08:56:00;;;;;;;10.30;7.07;;;6.80;99.90;;;;;;4978339;28;20243;-63
2022/11/12 08:58:27;;;;;;;12.43;7.63;;;6.80;99.90;;;;;;5000169;28;20221;-62
2022/11/12 09:00:55;;;;;;;8.57;6.37;;;6.90;99.90;;;;;;4988442;28;20238;-63
2022/11/12 09:03:24;;;;;;;10.73;6.97;;;7.00;99.90;;;;;;4957953;28;20230;-62
2022/11/12 09:05:53;;;;;;;12.90;6.20;;;7.00;99.90;;;;;;4986400;28;20253;-63
2022/11/12 09:08:22;;;;;;;13.63;7.10;;;7.10;99.90;;;;;;4989939;28;20229;-63
2022/11/12 09:10:50;;;;;;;11.47;6.70;;;7.20;99.90;;;;;;5000640;28;20205;-63
2022/11/12 09:13:17;;;;;;;11.43;7.53;;;7.40;99.90;;;;;;4994196;28;20230;-63
2022/11/12 09:15:44;;;;;;;9.37;6.97;;;7.30;99.90;;;;;;5009171;28;20204;-63
2022/11/12 09:18:13;;;;;;;9.93;7.77;;;7.40;99.90;;;;;;5007335;28;20785;-63
2022/11/12 09:20:40;;;;;;;12.23;7.70;;;7.40;99.90;;;;;;5009326;28;20237;-63
2022/11/12 09:23:11;;;;;;;9.13;7.37;;;7.50;99.90;;;;;;4994986;28;20230;-63
2022/11/12 09:25:38;;;;;;;9.70;7.10;;;7.50;99.90;;;;;;4998438;28;20748;-63
2022/11/12 09:28:10;;;;;;;10.47;7.37;;;7.60;99.90;;;;;;4979538;28;20691;-63
2022/11/12 09:30:38;;;;;;;11.27;7.63;;;7.60;99.90;;;;;;4996181;28;20202;-63
2022/11/12 09:33:05;;;;;;;10.00;6.87;;;7.70;99.90;;;;;;5005891;28;20214;-63
2022/11/12 09:35:32;;;;;;;11.83;7.27;;;7.80;99.90;;;;;;5003120;28;20202;-64
2022/11/12 09:38:00;;;;;;;11.00;7.47;;;7.80;99.90;;;;;;5014321;28;20201;-63
2022/11/12 09:40:41;;;;;;;9.97;7.30;;;7.90;99.90;;;;;;4990269;28;23035;-64
2022/11/12 09:43:18;;;;;;;11.23;7.40;;;8.00;99.90;;;;;;4983100;28;20737;-63
2022/11/12 09:45:46;;;;;;;11.07;8.00;;;8.00;99.90;;;;;;4995016;28;20208;-63
2022/11/12 09:48:18;;;;;;;11.07;8.10;;;8.10;99.90;;;;;;4988534;28;20379;-63
2022/11/12 09:50:56;;;;;;;13.03;8.40;;;8.20;99.90;;;;;;5003048;28;20209;-64
2022/11/12 09:53:32;;;;;;;13.00;7.83;;;8.20;99.90;;;;;;5006822;28;20205;-62
2022/11/12 09:56:05;;;;;;;10.90;8.20;;;8.30;99.90;;;;;;4996216;28;20552;-63
2022/11/12 09:58:32;;;;;;;14.80;9.00;;;8.40;99.90;;;;;;4984117;28;20206;-64
2022/11/12 10:01:03;;;;;;;17.77;9.47;;;8.40;99.90;;;;;;5002379;28;20225;-63
2022/11/12 10:03:37;;;;;;;10.33;8.00;;;8.50;99.90;;;;;;5004849;28;20992;-63
2022/11/12 10:06:12;;;;;;;13.47;8.47;;;8.60;99.90;;;;;;5007967;28;20225;-63
2022/11/12 10:08:46;;;;;;;12.23;8.27;;;8.60;99.90;;;;;;5015296;28;20703;-63
2022/11/12 10:17:54;;;;;;;14.73;7.40;;;8.70;99.90;;;;;;4998028;28;21031;-63
2022/11/12 10:20:25;;;;;;;9.63;7.47;;;8.70;99.90;;;;;;5012637;28;20697;-63
2022/11/12 10:23:10;;;;;;;10.80;7.55;;;8.80;99.90;;;;;;4994704;28;20205;-65
2022/11/12 10:25:39;;;;;;;12.90;8.70;;;8.80;99.90;;;;;;4999833;28;20201;-63
2022/11/12 10:28:19;;;;;;;12.63;8.45;;;8.80;99.90;;;;;;5019472;28;20227;-63
2022/11/12 10:30:46;;;;;;;10.07;7.97;;;8.90;99.90;;;;;;4981089;28;20210;-63
2022/11/12 10:33:14;;;;;;;16.15;9.52;;;9.00;99.90;;;;;;5004718;28;20224;-63
2022/11/12 10:35:41;;;;;;;13.80;9.45;;;9.00;99.90;;;;;;5009095;28;20206;-63
2022/11/12 10:38:14;;;;;;;15.48;10.60;;;9.00;99.90;;;;;;4994932;28;20222;-63
2022/11/12 10:40:41;;;;;;;15.40;10.50;;;9.00;99.90;;;;;;5001506;28;20328;-64
2022/11/12 10:43:23;;;;;;;15.70;10.68;;;9.10;99.90;;;;;;5022541;28;20585;-63
2022/11/12 10:45:50;;;;;;;15.63;10.73;;;9.20;99.90;;;;;;4997218;28;20229;-63
2022/11/12 10:48:23;;;;;;;15.25;10.65;;;9.20;99.90;;;;;;5028374;28;20202;-63
2022/11/12 10:50:50;;;;;;;17.27;10.77;;;9.20;99.90;;;;;;5002860;28;20259;-63
2022/11/12 10:53:32;;;;;;;13.88;10.57;;;9.20;99.90;;;;;;4992940;28;20221;-63
2022/11/12 10:56:00;;;;;;;19.38;10.80;;;9.30;99.90;;;;;;4998408;28;20209;-63
2022/11/12 10:58:28;;;;;;;15.65;10.93;;;9.40;99.90;;;;;;5017805;28;20198;-63
2022/11/12 11:00:58;;;;;;;16.00;10.73;;;9.40;99.90;;;;;;4989506;28;20240;-63
2022/11/12 11:03:28;;;;;;;15.77;10.20;;;9.40;99.90;;;;;;5025440;28;20205;-63
2022/11/12 11:05:59;;;;;;;13.90;10.00;;;9.40;99.90;;;;;;5010623;28;20198;-63
2022/11/12 11:08:37;;;;;;;13.10;10.55;;;9.50;99.90;;;;;;4997776;28;20240;-64
2022/11/12 11:11:19;;;;;;;16.13;11.48;;;9.50;99.90;;;;;;5007944;28;20740;-62
2022/11/12 11:13:48;;;;;;;17.27;9.68;;;9.50;99.90;;;;;;5023687;28;20220;-64
2022/11/12 11:16:17;;;;;;;13.55;9.48;;;9.60;99.90;;;;;;4982308;28;20798;-63
2022/11/12 11:18:48;;;;;;;14.45;10.10;;;9.60;99.90;;;;;;5021557;28;20206;-63
2022/11/12 11:21:37;;;;;;;15.05;9.82;;;9.80;99.90;;;;;;5001539;28;20225;-63
2022/11/12 11:24:18;;;;;;;13.93;8.85;;;9.80;99.90;;;;;;4995239;28;20201;-63
2022/11/12 11:26:56;;;;;;;18.02;8.95;;;9.90;99.90;;;;;;5010340;28;20209;-63
2022/11/12 11:29:39;;;;;;;12.63;8.50;;;9.90;99.90;;;;;;5025590;28;20205;-63
2022/11/12 11:32:14;;;;;;;13.02;8.35;;;9.90;99.90;;;;;;4994795;28;20205;-63
2022/11/12 11:34:46;;;;;;;12.85;7.22;;;9.90;99.90;;;;;;5000575;28;20205;-63
2022/11/12 11:37:25;;;;;;;11.50;7.00;;;9.90;99.90;;;;;;5018672;28;20206;-63
2022/11/12 11:40:05;;;;;;;11.93;7.20;;;10.00;99.90;;;;;;4999078;28;20401;-63
2022/11/12 11:42:58;;;;;;;9.52;7.07;;;9.90;99.90;;;;;;5003437;28;20235;-64
2022/11/12 11:45:32;;;;;;;10.65;7.35;;;10.00;99.90;;;;;;5023763;28;20198;-63
2022/11/12 11:48:09;;;;;;;8.93;6.53;;;10.10;99.90;;;;;;4987471;28;20232;-64
2022/11/12 11:50:42;;;;;;;12.85;7.63;;;10.10;99.90;;;;;;5002908;28;20666;-63
2022/11/12 11:53:21;;;;;;;12.57;7.43;;;10.20;99.90;;;;;;4999713;28;20926;-64
2022/11/12 11:55:54;;;;;;;13.15;7.22;;;10.40;99.90;;;;;;4997851;28;20202;-63
2022/11/12 11:58:59;;;;;;;14.02;7.93;;;10.40;99.90;;;;;;5025264;28;20209;-63
2022/11/12 12:01:36;;;;;;;13.43;7.55;;;10.40;99.90;;;;;;4984999;28;20235;-64
2022/11/12 12:04:24;;;;;;;10.88;7.15;;;10.60;99.90;;;;;;5019296;28;20221;-64
2022/11/12 12:07:04;;;;;;;9.10;6.68;;;10.70;99.90;;;;;;5004130;28;20233;-63
2022/11/12 12:09:37;;;;;;;9.13;6.88;;;10.70;99.90;;;;;;5005616;28;20233;-63
2022/11/12 12:12:16;;;;;;;11.38;7.00;;;10.70;99.90;;;;;;4992112;28;20203;-64
2022/11/12 12:14:55;;;;;;;12.48;7.57;;;10.70;99.90;;;;;;5023124;28;20197;-63
2022/11/12 12:17:39;;;;;;;10.63;6.18;;;10.80;99.90;;;;;;4992609;28;20209;-63
2022/11/12 12:20:19;;;;;;;10.38;6.75;;;10.80;99.90;;;;;;5009701;28;20700;-63
2022/11/12 12:22:51;;;;;;;9.10;7.22;;;10.80;99.90;;;;;;5023124;28;20209;-63
2022/11/12 12:25:24;;;;;;;10.15;7.43;;;10.80;99.90;;;;;;5013153;28;20228;-63
2022/11/12 12:27:55;;;;;;;12.23;7.18;;;10.80;99.90;;;;;;4995111;28;20232;-63
2022/11/12 12:30:23;;;;;;;10.68;7.18;;;10.80;99.90;;;;;;5024253;28;20198;-63
2022/11/12 12:32:56;;;;;;;9.40;6.93;;;10.80;99.90;;;;;;4990805;28;20888;-63
2022/11/12 12:35:27;;;;;;;10.80;7.05;;;10.80;99.90;;;;;;5024738;28;20886;-64
2022/11/12 12:38:05;;;;;;;12.45;7.07;;;10.90;99.90;;;;;;4997470;28;20205;-64
2022/11/12 12:40:34;;;;;;;11.45;7.90;;;10.90;99.90;;;;;;5012308;28;20880;-64
2022/11/12 12:43:07;;;;;;;12.32;6.82;;;11.00;99.90;;;;;;5003948;28;20322;-64
2022/11/12 12:45:40;;;;;;;9.90;6.45;;;11.00;99.90;;;;;;5006130;28;20224;-63
2022/11/12 12:48:15;;;;;;;15.40;7.50;;;11.00;99.90;;;;;;4987872;28;21007;-63
2022/11/12 12:50:43;;;;;;;11.05;7.70;;;11.10;99.90;;;;;;5020441;28;20204;-64
2022/11/12 12:53:32;;;;;;;13.75;7.50;;;11.10;99.90;;;;;;4993475;28;20231;-63
2022/11/12 12:56:00;;;;;;;13.25;7.18;;;11.10;99.90;;;;;;5013070;28;20212;-64
2022/11/12 12:58:29;;;;;;;10.68;7.30;;;11.10;99.90;;;;;;5009245;28;20213;-63
2022/11/12 13:01:01;;;;;;;9.60;6.45;;;11.20;99.90;;;;;;5000333;28;20225;-64
2022/11/12 13:03:57;;;;;;;9.63;6.65;;;11.30;99.90;;;;;;5022759;28;20692;-63
2022/11/12 13:06:29;;;;;;;13.48;6.53;;;8.80;99.90;;;;;;5018734;28;20710;-63
2022/11/12 13:09:00;;;;;;;9.80;6.82;;;11.50;99.90;;;;;;5026995;28;20225;-63
2022/11/12 13:15:19;;;;;;;10.05;6.55;;;11.50;99.90;;;;;;5007849;28;20229;-64
2022/11/12 13:17:51;;;;;;;9.73;5.95;;;11.50;99.90;;;;;;5015751;28;20236;-64
2022/11/12 13:20:36;;;;;;;8.48;5.25;;;11.50;99.90;;;;;;4997590;28;21231;-63
2022/11/12 13:23:03;;;;;;;6.93;5.57;;;11.40;99.90;;;;;;5019213;28;20205;-64
2022/11/12 13:25:31;;;;;;;6.53;5.68;;;11.40;99.90;;;;;;4989665;28;20706;-64
2022/11/12 13:28:06;;;;;;;9.98;5.68;;;11.40;99.90;;;;;;5007408;28;20226;-63
2022/11/12 13:31:03;;;;;;;7.80;5.38;;;11.40;99.90;;;;;;4991904;28;20205;-64
2022/11/12 13:33:33;;;;;;;8.63;5.63;;;11.40;99.90;;;;;;4961170;28;20199;-63
2022/11/12 13:36:26;;;;;;;11.07;5.78;;;11.40;99.90;;;;;;4980964;28;20224;-63
2022/11/12 13:38:55;;;;;;;12.95;5.57;;;11.50;99.90;;;;;;5020970;28;20225;-63